createdAt,value
2018-05-25T00:00:48.174Z,17.50
2018-05-25T00:03:16.449Z,17.50
2018-05-25T00:05:44.735Z,17.50
2018-05-25T00:08:12.251Z,17.50
2018-05-25T00:10:39.758Z,17.50
2018-05-25T00:13:07.264Z,17.50
2018-05-25T00:15:34.774Z,17.50
2018-05-25T00:18:02.291Z,17.50
2018-05-25T00:20:29.800Z,17.40
2018-05-25T00:22:57.308Z,17.40
2018-05-25T00:25:24.811Z,17.40
2018-05-25T00:27:52.319Z,17.40
2018-05-25T00:30:19.847Z,17.40
2018-05-25T00:32:47.351Z,17.40
2018-05-25T00:35:15.626Z,17.40
2018-05-25T00:37:43.162Z,17.40
2018-05-25T00:40:11.439Z,17.40
2018-05-25T00:42:38.936Z,17.40
2018-05-25T00:45:06.448Z,17.40
2018-05-25T00:47:33.998Z,17.30
2018-05-25T00:50:01.540Z,17.40
2018-05-25T00:52:29.040Z,17.30
2018-05-25T00:55:08.479Z,17.30
2018-05-25T00:57:35.991Z,17.30
2018-05-25T01:00:03.545Z,17.30
2018-05-25T01:02:31.081Z,17.30
2018-05-25T01:04:59.346Z,17.30
2018-05-25T01:07:27.651Z,17.30
2018-05-25T01:09:55.152Z,17.30
2018-05-25T01:12:22.650Z,17.20
2018-05-25T01:14:50.917Z,17.20
2018-05-25T01:17:19.183Z,17.10
2018-05-25T01:19:46.704Z,17.10
2018-05-25T01:22:14.232Z,17.10
2018-05-25T01:24:41.735Z,17.10
2018-05-25T01:27:09.240Z,17.10
2018-05-25T01:29:36.751Z,17.10
2018-05-25T01:32:04.267Z,17.10
2018-05-25T01:34:31.779Z,17.10
2018-05-25T01:37:00.050Z,17.10
2018-05-25T01:39:27.651Z,17.10
2018-05-25T01:41:55.155Z,17.10
2018-05-25T01:44:22.668Z,17.10
2018-05-25T01:46:50.179Z,17.10
2018-05-25T01:49:17.696Z,17.10
2018-05-25T01:51:45.207Z,17.10
2018-05-25T01:54:12.705Z,17.10
2018-05-25T01:56:40.205Z,17.10
2018-05-25T01:59:08.512Z,17.00
2018-05-25T02:01:36.070Z,17.00
2018-05-25T02:04:03.563Z,17.00
2018-05-25T02:06:31.075Z,17.00
2018-05-25T02:08:58.576Z,17.00
2018-05-25T02:11:26.082Z,17.00
2018-05-25T02:13:54.359Z,17.00
2018-05-25T02:16:22.641Z,17.00
2018-05-25T02:18:50.905Z,16.90
2018-05-25T02:21:19.170Z,16.90
2018-05-25T02:23:46.720Z,16.90
2018-05-25T02:26:14.222Z,16.90
2018-05-25T02:28:41.729Z,16.90
2018-05-25T02:31:09.355Z,16.90
2018-05-25T02:33:36.876Z,16.80
2018-05-25T02:36:05.168Z,16.80
2018-05-25T02:38:32.803Z,16.70
2018-05-25T02:41:00.303Z,16.80
2018-05-25T02:43:27.850Z,16.70
2018-05-25T02:45:55.349Z,16.70
2018-05-25T02:48:22.862Z,16.70
2018-05-25T02:50:50.365Z,16.70
2018-05-25T02:53:17.866Z,16.70
2018-05-25T02:55:46.166Z,16.70
2018-05-25T02:58:13.720Z,16.60
2018-05-25T03:00:41.273Z,16.60
2018-05-25T03:03:08.780Z,16.60
2018-05-25T03:05:36.310Z,16.60
2018-05-25T03:08:03.824Z,16.60
2018-05-25T03:10:32.110Z,16.60
2018-05-25T03:13:00.386Z,16.60
2018-05-25T03:15:28.663Z,16.70
2018-05-25T03:17:56.930Z,16.70
2018-05-25T03:20:25.224Z,16.70
2018-05-25T03:22:53.501Z,16.70
2018-05-25T03:25:21.002Z,16.70
2018-05-25T03:27:48.507Z,16.70
2018-05-25T03:30:16.787Z,16.70
2018-05-25T03:32:45.064Z,16.70
2018-05-25T03:35:13.328Z,16.70
2018-05-25T03:37:41.602Z,16.70
2018-05-25T03:40:09.863Z,16.70
2018-05-25T03:42:37.378Z,16.60
2018-05-25T03:45:04.875Z,16.70
2018-05-25T03:47:32.470Z,16.70
2018-05-25T03:50:00.740Z,16.80
2018-05-25T03:52:29.008Z,16.80
2018-05-25T03:54:57.279Z,16.80
2018-05-25T03:57:24.782Z,16.80
2018-05-25T04:00:04.025Z,16.80
2018-05-25T04:02:31.527Z,16.80
2018-05-25T04:04:59.046Z,16.90
2018-05-25T04:07:26.553Z,16.90
2018-05-25T04:09:54.835Z,16.80
2018-05-25T04:12:23.105Z,16.80
2018-05-25T04:14:51.388Z,16.80
2018-05-25T04:17:19.653Z,16.80
2018-05-25T04:19:47.910Z,16.80
2018-05-25T04:22:15.423Z,16.80
2018-05-25T04:24:42.971Z,16.90
2018-05-25T04:27:10.486Z,16.90
2018-05-25T04:29:37.986Z,16.90
2018-05-25T04:32:05.497Z,16.90
2018-05-25T04:34:33.006Z,17.00
2018-05-25T04:37:00.535Z,17.00
2018-05-25T04:39:28.822Z,17.10
2018-05-25T04:41:57.107Z,17.10
2018-05-25T04:44:24.614Z,17.10
2018-05-25T04:46:52.120Z,17.10
2018-05-25T04:49:19.631Z,17.10
2018-05-25T04:51:47.146Z,17.10
2018-05-25T04:54:14.662Z,17.00
2018-05-25T04:56:42.176Z,17.00
2018-05-25T04:59:09.677Z,17.10
2018-05-25T05:01:38.742Z,17.20
2018-05-25T05:04:06.254Z,17.20
2018-05-25T05:06:34.522Z,17.30
2018-05-25T05:09:02.823Z,17.30
2018-05-25T05:11:30.337Z,17.30
2018-05-25T05:13:57.935Z,17.40
2018-05-25T05:16:25.499Z,17.40
2018-05-25T05:18:53.010Z,17.40
2018-05-25T05:21:20.518Z,17.40
2018-05-25T05:23:48.024Z,17.40
2018-05-25T05:26:15.535Z,17.40
2018-05-25T05:28:43.096Z,17.40
2018-05-25T05:31:10.608Z,17.40
2018-05-25T05:33:38.169Z,17.50
2018-05-25T05:36:05.640Z,17.50
2018-05-25T05:38:33.146Z,17.60
2018-05-25T05:41:00.696Z,17.60
2018-05-25T05:43:28.201Z,17.60
2018-05-25T05:45:55.725Z,17.70
2018-05-25T05:48:23.995Z,18.00
2018-05-25T05:50:51.551Z,18.00
2018-05-25T05:53:19.102Z,18.10
2018-05-25T05:55:46.662Z,18.30
2018-05-25T05:58:14.169Z,18.60
2018-05-25T06:00:41.686Z,18.90
2018-05-25T06:03:09.190Z,19.10
2018-05-25T06:05:36.696Z,19.20
2018-05-25T06:08:04.245Z,19.20
2018-05-25T06:10:31.763Z,19.20
2018-05-25T06:12:59.355Z,19.30
2018-05-25T06:15:27.618Z,19.40
2018-05-25T06:17:55.946Z,19.40
2018-05-25T06:20:23.472Z,19.40
2018-05-25T06:22:51.028Z,19.40
2018-05-25T06:25:19.336Z,19.70
2018-05-25T06:27:46.862Z,19.70
2018-05-25T06:30:14.428Z,19.90
2018-05-25T06:32:41.936Z,20.20
2018-05-25T06:35:09.448Z,20.40
2018-05-25T06:37:36.998Z,20.70
2018-05-25T06:40:04.515Z,21.10
2018-05-25T06:42:32.017Z,21.50
2018-05-25T06:44:59.517Z,21.90
2018-05-25T06:47:27.026Z,22.10
2018-05-25T06:49:54.552Z,22.30
2018-05-25T06:52:22.075Z,22.40
2018-05-25T06:54:49.619Z,22.50
2018-05-25T06:57:17.144Z,22.30
2018-05-25T06:59:44.644Z,22.00
2018-05-25T07:02:12.150Z,21.80
2018-05-25T07:04:39.656Z,21.70
2018-05-25T07:07:07.163Z,21.70
2018-05-25T07:09:34.660Z,21.80
2018-05-25T07:12:02.190Z,21.90
2018-05-25T07:14:29.697Z,22.00
2018-05-25T07:16:57.196Z,22.00
2018-05-25T07:19:24.719Z,22.00
2018-05-25T07:21:52.223Z,22.10
2018-05-25T07:24:20.516Z,22.10
2018-05-25T07:26:48.823Z,22.00
2018-05-25T07:29:16.367Z,22.00
2018-05-25T07:31:44.019Z,22.00
2018-05-25T07:34:12.295Z,22.00
2018-05-25T07:36:40.567Z,22.10
2018-05-25T07:39:08.852Z,22.20
2018-05-25T07:41:36.365Z,22.20
2018-05-25T07:44:03.871Z,22.40
2018-05-25T07:46:31.424Z,22.50
2018-05-25T07:48:58.927Z,22.60
2018-05-25T07:51:26.442Z,22.70
2018-05-25T07:53:53.966Z,22.60
2018-05-25T07:56:21.471Z,22.60
2018-05-25T07:58:48.976Z,22.60
2018-05-25T08:01:16.478Z,22.50
2018-05-25T08:03:43.975Z,22.50
2018-05-25T08:06:11.482Z,22.40
2018-05-25T08:08:39.755Z,22.30
2018-05-25T08:11:08.032Z,22.30
2018-05-25T08:13:36.294Z,22.40
2018-05-25T08:16:04.563Z,22.40
2018-05-25T08:18:32.092Z,22.40
2018-05-25T08:20:59.614Z,22.50
2018-05-25T08:23:27.112Z,22.40
2018-05-25T08:25:54.610Z,22.40
2018-05-25T08:28:22.894Z,22.30
2018-05-25T08:30:51.182Z,22.20
2018-05-25T08:33:18.735Z,22.20
2018-05-25T08:35:46.242Z,22.30
2018-05-25T08:38:13.751Z,22.40
2018-05-25T08:40:41.264Z,22.50
2018-05-25T08:43:08.758Z,22.60
2018-05-25T08:45:37.063Z,22.60
2018-05-25T08:48:04.560Z,22.50
2018-05-25T08:50:32.164Z,22.60
2018-05-25T08:52:59.672Z,22.60
2018-05-25T08:55:27.171Z,22.70
2018-05-25T08:57:55.473Z,23.00
2018-05-25T09:00:22.984Z,23.00
2018-05-25T09:02:51.368Z,23.10
2018-05-25T09:05:18.812Z,23.10
2018-05-25T09:07:46.312Z,23.20
2018-05-25T09:10:13.828Z,23.30
2018-05-25T09:12:41.333Z,23.50
2018-05-25T09:15:08.840Z,23.70
2018-05-25T09:17:36.359Z,23.90
2018-05-25T09:20:03.867Z,24.10
2018-05-25T09:22:31.458Z,24.20
2018-05-25T09:24:58.956Z,24.40
2018-05-25T09:27:26.463Z,24.50
2018-05-25T09:29:54.743Z,24.50
2018-05-25T09:32:23.063Z,24.40
2018-05-25T09:34:50.575Z,24.40
2018-05-25T09:37:18.843Z,24.30
2018-05-25T09:39:47.260Z,24.40
2018-05-25T09:42:14.779Z,24.40
2018-05-25T09:44:43.122Z,24.80
2018-05-25T09:47:11.331Z,24.80
2018-05-25T09:49:39.629Z,24.80
2018-05-25T09:52:07.134Z,24.80
2018-05-25T09:54:34.644Z,24.80
2018-05-25T09:57:02.216Z,24.60
2018-05-25T09:59:29.714Z,24.50
2018-05-25T10:01:57.215Z,24.30
2018-05-25T10:04:24.782Z,24.30
2018-05-25T10:06:52.291Z,24.40
2018-05-25T10:09:20.560Z,24.40
2018-05-25T10:11:48.085Z,24.40
2018-05-25T10:14:15.591Z,24.60
2018-05-25T10:16:43.098Z,24.60
2018-05-25T10:19:10.603Z,24.70
2018-05-25T10:21:38.105Z,24.70
2018-05-25T10:24:05.608Z,24.80
2018-05-25T10:26:33.115Z,25.00
2018-05-25T10:29:00.680Z,25.10
2018-05-25T10:31:28.199Z,25.10
2018-05-25T10:33:57.226Z,25.10
2018-05-25T10:36:24.742Z,25.10
2018-05-25T10:38:53.006Z,25.10
2018-05-25T10:41:20.506Z,25.10
2018-05-25T10:43:48.788Z,25.30
2018-05-25T10:46:16.303Z,25.30
2018-05-25T10:48:43.851Z,25.30
2018-05-25T10:51:11.322Z,25.30
2018-05-25T10:53:38.826Z,25.40
2018-05-25T10:56:06.347Z,25.40
2018-05-25T10:58:33.945Z,25.50
2018-05-25T11:01:02.211Z,25.80
2018-05-25T11:03:30.496Z,25.80
2018-05-25T11:05:58.794Z,25.90
2018-05-25T11:08:26.291Z,25.90
2018-05-25T11:10:53.806Z,26.00
2018-05-25T11:13:21.322Z,26.00
2018-05-25T11:15:48.832Z,25.90
2018-05-25T11:18:16.345Z,25.70
2018-05-25T11:20:43.843Z,25.60
2018-05-25T11:23:11.351Z,25.50
2018-05-25T11:25:38.867Z,25.50
2018-05-25T11:28:06.372Z,25.50
2018-05-25T11:30:33.895Z,25.50
2018-05-25T11:33:01.386Z,25.60
2018-05-25T11:35:28.900Z,25.60
2018-05-25T11:37:56.396Z,25.50
2018-05-25T11:40:23.906Z,25.40
2018-05-25T11:42:51.407Z,25.40
2018-05-25T11:45:18.909Z,25.50
2018-05-25T11:47:46.422Z,25.40
2018-05-25T11:50:14.031Z,25.40
2018-05-25T11:52:41.534Z,25.30
2018-05-25T11:55:09.032Z,25.30
2018-05-25T11:57:37.317Z,25.40
2018-05-25T12:00:04.821Z,25.30
2018-05-25T12:02:32.321Z,25.30
2018-05-25T12:05:00.598Z,25.30
2018-05-25T12:07:28.876Z,25.20
2018-05-25T12:09:57.172Z,25.20
2018-05-25T12:12:24.675Z,25.20
2018-05-25T12:14:52.184Z,25.20
2018-05-25T12:17:19.682Z,25.20
2018-05-25T12:19:47.206Z,25.20
2018-05-25T12:22:15.471Z,25.20
2018-05-25T12:24:42.982Z,25.20
2018-05-25T12:27:10.488Z,25.20
2018-05-25T12:29:37.995Z,25.30
2018-05-25T12:32:05.508Z,25.50
2018-05-25T12:34:33.018Z,25.40
2018-05-25T12:37:00.524Z,25.40
2018-05-25T12:39:28.026Z,25.50
2018-05-25T12:41:55.615Z,25.50
2018-05-25T12:44:23.896Z,25.60
2018-05-25T12:46:52.155Z,25.60
2018-05-25T12:49:19.659Z,25.60
2018-05-25T12:51:47.164Z,25.60
2018-05-25T12:54:14.666Z,25.70
2018-05-25T12:56:42.183Z,25.70
2018-05-25T12:59:09.670Z,25.70
2018-05-25T13:01:37.934Z,25.70
2018-05-25T13:04:06.208Z,25.80
2018-05-25T13:06:34.486Z,25.90
2018-05-25T13:09:02.774Z,26.10
2018-05-25T13:11:31.034Z,26.20
2018-05-25T13:13:59.296Z,26.40
2018-05-25T13:16:26.810Z,26.40
2018-05-25T13:18:54.311Z,26.50
2018-05-25T13:21:21.811Z,26.50
2018-05-25T13:23:49.361Z,26.50
2018-05-25T13:26:17.632Z,26.50
2018-05-25T13:28:45.907Z,26.60
2018-05-25T13:31:14.223Z,26.70
2018-05-25T13:33:42.495Z,26.70
2018-05-25T13:36:09.990Z,26.70
2018-05-25T13:38:37.500Z,26.50
2018-05-25T13:41:04.995Z,26.50
2018-05-25T13:43:32.491Z,26.50
2018-05-25T13:46:00.754Z,26.20
2018-05-25T13:48:28.262Z,26.20
2018-05-25T13:50:55.786Z,26.10
2018-05-25T13:53:24.171Z,26.30
2018-05-25T13:58:29.654Z,26.40
2018-05-25T14:00:57.893Z,26.60
2018-05-25T14:03:26.150Z,26.40
2018-05-25T14:05:53.655Z,26.40
2018-05-25T14:08:21.152Z,26.20
2018-05-25T14:10:48.653Z,26.00
2018-05-25T14:13:16.159Z,25.90
2018-05-25T14:15:43.655Z,25.80
2018-05-25T14:18:11.142Z,25.80
2018-05-25T14:20:38.815Z,25.80
2018-05-25T14:23:06.328Z,25.80
2018-05-25T14:25:33.825Z,25.70
2018-05-25T14:28:01.379Z,25.60
2018-05-25T14:30:28.935Z,25.40
2018-05-25T14:32:56.451Z,25.30
2018-05-25T14:35:25.451Z,25.40
2018-05-25T14:37:52.958Z,25.40
2018-05-25T14:40:20.447Z,25.40
2018-05-25T14:42:48.052Z,25.30
2018-05-25T14:45:15.571Z,25.20
2018-05-25T14:47:43.075Z,25.10
2018-05-25T14:50:10.583Z,25.10
2018-05-25T14:52:38.125Z,25.00
2018-05-25T14:55:05.614Z,25.00
2018-05-25T14:57:33.124Z,25.00
2018-05-25T15:00:00.627Z,25.10
2018-05-25T15:02:28.128Z,25.10
2018-05-25T15:04:55.630Z,25.10
2018-05-25T15:07:23.137Z,25.20
2018-05-25T15:09:51.400Z,25.20
2018-05-25T15:12:19.708Z,25.30
2018-05-25T15:14:47.207Z,25.30
2018-05-25T15:17:15.474Z,25.30
2018-05-25T15:19:42.971Z,25.30
2018-05-25T15:22:11.238Z,25.30
2018-05-25T15:24:39.506Z,25.40
2018-05-25T15:27:07.008Z,25.40
2018-05-25T15:29:34.548Z,25.50
2018-05-25T15:32:02.818Z,25.40
2018-05-25T15:34:31.111Z,25.40
2018-05-25T15:36:58.607Z,25.40
2018-05-25T15:39:26.111Z,25.50
2018-05-25T15:41:54.396Z,25.60
2018-05-25T15:44:21.903Z,25.50
2018-05-25T15:46:49.402Z,25.50
2018-05-25T15:49:17.683Z,25.40
2018-05-25T15:51:45.943Z,25.30
2018-05-25T15:54:14.198Z,25.30
2018-05-25T15:56:41.696Z,25.20
2018-05-25T15:59:09.195Z,25.20
2018-05-25T16:01:36.695Z,25.10
2018-05-25T16:04:04.951Z,25.00
2018-05-25T16:06:32.462Z,25.00
2018-05-25T16:09:00.731Z,24.90
2018-05-25T16:11:28.233Z,24.90
2018-05-25T16:13:55.738Z,24.80
2018-05-25T16:16:23.246Z,24.80
2018-05-25T16:18:50.744Z,24.80
2018-05-25T16:21:19.006Z,24.70
2018-05-25T16:23:47.278Z,24.60
2018-05-25T16:26:14.779Z,24.60
2018-05-25T16:28:42.279Z,24.50
2018-05-25T16:31:09.800Z,24.40
2018-05-25T16:33:37.313Z,24.40
2018-05-25T16:36:05.578Z,24.20
2018-05-25T16:38:33.086Z,24.20
2018-05-25T16:41:01.355Z,24.20
2018-05-25T16:43:28.851Z,24.20
2018-05-25T16:45:56.352Z,24.20
2018-05-25T16:48:24.635Z,24.30
2018-05-25T16:50:52.135Z,24.20
2018-05-25T16:53:19.631Z,24.30
2018-05-25T16:55:47.143Z,24.30
2018-05-25T16:58:14.641Z,24.40
2018-05-25T17:00:42.140Z,24.50
2018-05-25T17:03:09.686Z,24.50
2018-05-25T17:05:37.163Z,24.50
2018-05-25T17:08:04.703Z,24.50
2018-05-25T17:10:32.239Z,24.40
2018-05-25T17:12:59.751Z,24.40
2018-05-25T17:15:27.261Z,24.40
2018-05-25T17:17:55.543Z,24.30
2018-05-25T17:20:23.814Z,24.20
2018-05-25T17:22:52.083Z,24.10
2018-05-25T17:25:20.355Z,24.10
2018-05-25T17:27:47.853Z,24.00
2018-05-25T17:30:15.357Z,24.00
2018-05-25T17:32:42.965Z,24.00
2018-05-25T17:35:10.472Z,23.90
2018-05-25T17:37:39.484Z,23.90
2018-05-25T17:40:06.987Z,23.90
2018-05-25T17:42:34.487Z,23.90
2018-05-25T17:45:01.991Z,24.00
2018-05-25T17:47:29.539Z,23.90
2018-05-25T17:49:57.055Z,24.00
2018-05-25T17:52:24.568Z,24.00
2018-05-25T17:54:52.086Z,24.00
2018-05-25T17:57:19.623Z,24.00
2018-05-25T17:59:47.138Z,24.00
2018-05-25T18:02:14.696Z,23.90
2018-05-25T18:04:42.195Z,23.90
2018-05-25T18:07:09.691Z,23.90
2018-05-25T18:09:37.956Z,23.80
2018-05-25T18:12:05.456Z,23.80
2018-05-25T18:14:32.951Z,23.80
2018-05-25T18:17:00.470Z,23.80
2018-05-25T18:19:27.977Z,23.70
2018-05-25T18:21:55.486Z,23.70
2018-05-25T18:24:22.990Z,23.70
2018-05-25T18:26:50.597Z,23.60
2018-05-25T18:29:18.112Z,23.60
2018-05-25T18:31:46.375Z,23.60
2018-05-25T18:34:13.889Z,23.50
2018-05-25T18:36:41.396Z,23.50
2018-05-25T18:39:08.904Z,23.50
2018-05-25T18:41:36.469Z,23.50
2018-05-25T18:44:03.977Z,23.40
2018-05-25T18:46:31.480Z,23.40
2018-05-25T18:48:58.988Z,23.30
2018-05-25T18:51:26.589Z,23.30
2018-05-25T18:54:06.779Z,23.20
2018-05-25T18:56:34.311Z,23.20
2018-05-25T18:59:01.811Z,23.10
2018-05-25T19:01:29.307Z,23.00
2018-05-25T19:03:57.588Z,22.90
2018-05-25T19:06:25.866Z,22.80
2018-05-25T19:08:54.139Z,22.80
2018-05-25T19:11:22.397Z,22.70
2018-05-25T19:13:49.919Z,22.70
2018-05-25T19:16:17.447Z,22.60
2018-05-25T19:18:44.956Z,22.60
2018-05-25T19:21:12.565Z,22.50
2018-05-25T19:23:40.486Z,22.50
2018-05-25T19:26:07.991Z,22.40
2018-05-25T19:28:35.510Z,22.40
2018-05-25T19:31:03.015Z,22.30
2018-05-25T19:33:30.521Z,22.20
2018-05-25T19:35:58.006Z,22.20
2018-05-25T19:38:26.300Z,22.00
2018-05-25T19:40:53.795Z,22.00
2018-05-25T19:43:21.291Z,22.00
2018-05-25T19:45:49.594Z,21.90
2018-05-25T19:48:17.152Z,21.90
2018-05-25T19:50:44.663Z,21.90
2018-05-25T19:53:12.165Z,21.80
2018-05-25T19:55:39.678Z,21.80
2018-05-25T19:58:07.245Z,21.70
2018-05-25T20:00:34.740Z,21.70
2018-05-25T20:03:02.231Z,21.70
2018-05-25T20:05:29.739Z,21.70
2018-05-25T20:07:58.035Z,21.60
2018-05-25T20:10:25.536Z,21.60
2018-05-25T20:12:53.056Z,21.50
2018-05-25T20:15:20.560Z,21.50
2018-05-25T20:17:48.064Z,21.40
2018-05-25T20:20:16.406Z,21.30
2018-05-25T20:22:43.906Z,21.30
2018-05-25T20:25:11.446Z,21.30
2018-05-25T20:27:39.716Z,21.20
2018-05-25T20:30:07.206Z,21.20
2018-05-25T20:32:34.715Z,21.10
2018-05-25T20:35:02.225Z,21.10
2018-05-25T20:37:29.736Z,21.00
2018-05-25T20:39:58.737Z,20.90
2018-05-25T20:42:27.016Z,20.90
2018-05-25T20:44:55.491Z,20.90
2018-05-25T20:47:23.000Z,20.90
2018-05-25T20:49:50.493Z,20.90
2018-05-25T20:52:18.004Z,20.80
2018-05-25T20:54:45.562Z,20.80
2018-05-25T20:57:13.109Z,20.80
2018-05-25T20:59:40.620Z,20.70
2018-05-25T21:02:08.116Z,20.70
2018-05-25T21:04:36.390Z,20.60
2018-05-25T21:07:04.650Z,20.60
2018-05-25T21:09:32.151Z,20.60
2018-05-25T21:11:59.713Z,20.60
2018-05-25T21:14:27.266Z,20.60
2018-05-25T21:16:54.770Z,20.50
2018-05-25T21:19:22.276Z,20.50
2018-05-25T21:21:50.555Z,20.40
2018-05-25T21:24:18.058Z,20.40
2018-05-25T21:26:45.563Z,20.40
2018-05-25T21:29:13.842Z,20.40
2018-05-25T21:31:42.113Z,20.30
2018-05-25T21:34:10.386Z,20.30
2018-05-25T21:36:38.669Z,20.30
2018-05-25T21:39:06.930Z,20.30
2018-05-25T21:41:35.192Z,20.20
2018-05-25T21:44:02.705Z,20.20
2018-05-25T21:46:30.257Z,20.20
2018-05-25T21:48:58.515Z,20.10
2018-05-25T21:51:26.792Z,20.10
2018-05-25T21:53:55.092Z,20.00
2018-05-25T21:56:22.592Z,20.00
2018-05-25T21:58:50.110Z,20.00
2018-05-25T22:01:17.614Z,20.00
2018-05-25T22:03:45.116Z,19.90
2018-05-25T22:06:12.675Z,19.80
2018-05-25T22:08:40.335Z,19.80
2018-05-25T22:11:07.848Z,19.70
2018-05-25T22:13:35.347Z,19.70
2018-05-25T22:16:02.848Z,19.70
2018-05-25T22:18:30.358Z,19.70
2018-05-25T22:20:57.938Z,19.70
2018-05-25T22:23:25.445Z,19.70
2018-05-25T22:25:53.728Z,19.60
2018-05-25T22:28:21.228Z,19.60
2018-05-25T22:30:48.738Z,19.60
2018-05-25T22:33:16.279Z,19.50
2018-05-25T22:35:43.800Z,19.50
2018-05-25T22:38:11.298Z,19.50
2018-05-25T22:40:38.807Z,19.50
2018-05-25T22:43:18.086Z,19.40
2018-05-25T22:45:57.608Z,19.40
2018-05-25T22:48:37.118Z,19.40
2018-05-25T22:51:16.592Z,19.40
2018-05-25T22:53:49.290Z,19.40
2018-05-25T22:56:16.792Z,19.40
2018-05-25T22:58:44.312Z,19.30
2018-05-25T23:01:11.834Z,19.30
2018-05-25T23:03:39.375Z,19.30
2018-05-25T23:06:06.879Z,19.30
2018-05-25T23:08:34.383Z,19.20
2018-05-25T23:11:01.904Z,19.10
2018-05-25T23:13:29.413Z,19.10
2018-05-25T23:15:56.930Z,19.10
2018-05-25T23:18:25.936Z,18.90
2018-05-25T23:20:54.223Z,18.90
2018-05-25T23:23:22.482Z,18.90
2018-05-25T23:25:50.755Z,18.90
2018-05-25T23:28:18.266Z,18.90
2018-05-25T23:30:45.775Z,18.80
2018-05-25T23:33:14.038Z,18.70
2018-05-25T23:35:41.543Z,18.70
2018-05-25T23:38:09.048Z,18.70
2018-05-25T23:40:36.588Z,18.60
2018-05-25T23:43:04.194Z,18.70
2018-05-25T23:45:32.456Z,18.70
2018-05-25T23:47:59.963Z,18.70
2018-05-25T23:50:27.465Z,18.70
2018-05-25T23:52:55.069Z,18.70
2018-05-25T23:55:22.566Z,18.70
2018-05-25T23:57:50.066Z,18.70
